Time;durP1;ratioP1;P1;durP2;ratioP2;P2;SDS_P1;SDS_P2;PMS_P1;PMS_P2;Temp;Humidity;BMP_temperature;BMP_pressure;BME280_temperature;BME280_humidity;BME280_pressure;Samples;Min_cycle;Max_cycle;Signal;HPM_P1;HPM_P2
2023/09/23 00:00:23;;;;;;;3.38;2.28;;;11.50;99.90;;;;;;8317895;28;20021;-81
2023/09/23 00:04:24;;;;;;;3.80;2.15;;;11.60;99.90;;;;;;8316788;28;20059;-81
2023/09/23 00:08:25;;;;;;;3.72;2.30;;;11.50;99.90;;;;;;8333078;28;20208;-81
2023/09/23 00:12:25;;;;;;;3.55;1.95;;;11.40;99.90;;;;;;8303888;28;20023;-81
2023/09/23 00:16:26;;;;;;;3.08;2.10;;;11.40;99.90;;;;;;8326316;28;20397;-81
2023/09/23 00:20:27;;;;;;;2.80;2.25;;;11.40;99.90;;;;;;8317752;28;20026;-81
2023/09/23 00:24:28;;;;;;;4.43;2.47;;;11.40;99.90;;;;;;8322888;28;20032;-81
2023/09/23 00:28:30;;;;;;;3.30;2.58;;;11.30;99.90;;;;;;8325511;28;20080;-81
2023/09/23 00:32:34;;;;;;;3.97;2.65;;;11.20;99.90;;;;;;8309551;28;20029;-79
2023/09/23 00:36:35;;;;;;;3.35;2.60;;;11.10;99.90;;;;;;8324229;28;20076;-81
2023/09/23 00:40:38;;;;;;;3.35;2.42;;;11.20;99.90;;;;;;8325289;28;20029;-81
2023/09/23 00:44:42;;;;;;;4.60;2.65;;;11.30;99.90;;;;;;8334585;28;20425;-81
2023/09/23 00:48:44;;;;;;;2.20;2.00;;;11.20;99.90;;;;;;8311136;28;20018;-81
2023/09/23 00:52:53;;;;;;;3.33;2.25;;;11.00;99.90;;;;;;8322729;28;20033;-80
2023/09/23 00:56:56;;;;;;;3.13;2.38;;;11.00;99.90;;;;;;8308552;28;20027;-80
2023/09/23 01:00:56;;;;;;;4.35;2.40;;;11.00;99.90;;;;;;8307747;28;20034;-80
2023/09/23 01:04:57;;;;;;;6.10;2.60;;;11.00;99.90;;;;;;8317822;28;20025;-81
2023/09/23 01:08:57;;;;;;;4.72;2.60;;;11.00;99.90;;;;;;8329515;28;20452;-81
2023/09/23 01:12:58;;;;;;;3.90;2.47;;;10.90;99.90;;;;;;8315377;28;20025;-81
2023/09/23 01:16:59;;;;;;;4.82;2.53;;;10.90;99.90;;;;;;8311899;28;20441;-80
2023/09/23 01:21:01;;;;;;;2.55;2.30;;;11.10;99.90;;;;;;8321455;28;20063;-81
2023/09/23 01:25:02;;;;;;;3.20;2.35;;;11.10;99.90;;;;;;8317793;28;20393;-81
2023/09/23 01:29:07;;;;;;;3.42;2.38;;;11.00;99.90;;;;;;8332821;28;20028;-80
2023/09/23 01:33:07;;;;;;;5.20;2.13;;;10.90;99.90;;;;;;8328226;28;20075;-81
2023/09/23 01:37:09;;;;;;;3.88;2.30;;;10.90;99.90;;;;;;8321528;28;20646;-81
2023/09/23 01:41:10;;;;;;;3.28;1.90;;;10.80;99.90;;;;;;8324312;28;20467;-81
2023/09/23 01:45:12;;;;;;;3.63;2.10;;;10.80;99.90;;;;;;8309589;28;20026;-81
2023/09/23 01:49:16;;;;;;;2.88;2.22;;;10.80;99.90;;;;;;8322245;28;20021;-81
2023/09/23 01:53:25;;;;;;;4.60;2.25;;;10.90;99.90;;;;;;8315429;28;20037;-80
2023/09/23 01:57:26;;;;;;;3.17;2.17;;;11.10;99.90;;;;;;8317847;28;20088;-81
2023/09/23 02:01:26;;;;;;;4.22;1.95;;;11.10;99.90;;;;;;8315333;28;20119;-81
2023/09/23 02:05:27;;;;;;;3.50;2.25;;;11.00;99.90;;;;;;8318118;28;20036;-80
2023/09/23 02:09:27;;;;;;;3.72;2.22;;;11.20;99.90;;;;;;8326433;28;20041;-81
2023/09/23 02:13:28;;;;;;;5.22;2.65;;;11.00;99.90;;;;;;8321952;28;20037;-81
2023/09/23 02:17:28;;;;;;;5.15;2.47;;;11.10;99.90;;;;;;8327184;28;20482;-81
2023/09/23 02:21:30;;;;;;;3.75;2.35;;;11.10;99.90;;;;;;8317939;28;20072;-82
2023/09/23 02:25:30;;;;;;;4.90;3.05;;;11.10;99.90;;;;;;8326739;28;20528;-81
2023/09/23 02:29:32;;;;;;;3.13;2.45;;;11.10;99.90;;;;;;8314527;28;20037;-81
2023/09/23 02:33:32;;;;;;;3.15;2.47;;;11.10;99.90;;;;;;8310356;28;20535;-81
2023/09/23 02:37:33;;;;;;;3.63;2.65;;;11.10;99.90;;;;;;8309686;28;20025;-81
2023/09/23 02:41:34;;;;;;;4.68;2.67;;;11.20;99.90;;;;;;8308103;28;20030;-81
2023/09/23 02:45:34;;;;;;;5.38;3.30;;;11.20;99.90;;;;;;8339562;28;20016;-81
2023/09/23 02:49:35;;;;;;;4.30;2.90;;;11.10;99.90;;;;;;8324473;28;20438;-81
2023/09/23 02:53:36;;;;;;;3.53;2.90;;;11.20;99.90;;;;;;8330653;28;20017;-81
2023/09/23 02:57:37;;;;;;;4.90;3.10;;;11.30;99.90;;;;;;8307294;28;20033;-81
2023/09/23 03:01:39;;;;;;;3.63;2.95;;;11.40;99.90;;;;;;8301361;28;20030;-81
2023/09/23 03:05:44;;;;;;;5.85;3.40;;;11.30;99.90;;;;;;8319648;28;20141;-81
2023/09/23 03:09:55;;;;;;;4.97;2.92;;;11.10;99.90;;;;;;8312529;28;20072;-81
2023/09/23 03:13:55;;;;;;;5.03;2.85;;;11.10;99.90;;;;;;8313578;28;20036;-81
2023/09/23 03:17:59;;;;;;;4.30;2.65;;;11.30;99.90;;;;;;8311783;28;20026;-81
2023/09/23 03:22:00;;;;;;;5.32;2.50;;;11.50;99.90;;;;;;8316258;28;20471;-81
2023/09/23 03:26:01;;;;;;;5.43;2.67;;;11.40;99.90;;;;;;8334950;28;20075;-81
2023/09/23 03:30:11;;;;;;;3.88;2.50;;;11.30;99.90;;;;;;8318296;28;20018;-81
2023/09/23 03:34:15;;;;;;;5.03;2.35;;;11.30;99.90;;;;;;8317345;28;20032;-80
2023/09/23 03:38:15;;;;;;;3.55;2.30;;;11.50;99.90;;;;;;8334442;28;20056;-81
2023/09/23 03:42:16;;;;;;;2.72;2.40;;;11.40;99.90;;;;;;8326910;28;20314;-81
2023/09/23 03:46:17;;;;;;;5.80;2.45;;;11.50;99.90;;;;;;8317891;28;20085;-81
2023/09/23 03:50:18;;;;;;;3.28;2.63;;;11.10;99.90;;;;;;8315378;28;20057;-81
2023/09/23 03:54:18;;;;;;;3.03;2.50;;;11.00;99.90;;;;;;8331240;28;20073;-81
2023/09/23 03:58:19;;;;;;;3.65;2.30;;;10.90;99.90;;;;;;8306650;28;20493;-81
2023/09/23 04:02:21;;;;;;;3.15;2.08;;;10.90;99.90;;;;;;8311007;28;20112;-81
2023/09/23 04:06:22;;;;;;;3.85;2.10;;;11.00;99.90;;;;;;8316202;28;20124;-81
2023/09/23 04:10:27;;;;;;;3.58;2.15;;;10.80;99.90;;;;;;8320075;28;20037;-82
2023/09/23 04:14:30;;;;;;;3.30;2.40;;;10.60;99.90;;;;;;8325341;28;20386;-81
2023/09/23 04:18:31;;;;;;;3.42;2.33;;;10.30;99.90;;;;;;8320588;28;20025;-80
2023/09/23 04:22:32;;;;;;;3.20;2.60;;;10.10;99.90;;;;;;8327670;28;20502;-82
2023/09/23 04:26:59;;;;;;;2.60;2.28;;;10.00;99.90;;;;;;8309719;28;20508;-81
2023/09/23 04:31:00;;;;;;;4.43;2.45;;;9.80;99.90;;;;;;8294256;28;20088;-80
2023/09/23 04:35:02;;;;;;;4.93;2.88;;;9.60;99.90;;;;;;8315502;28;20112;-81
2023/09/23 04:39:06;;;;;;;3.83;2.92;;;9.60;99.90;;;;;;8316113;28;20025;-81
2023/09/23 04:43:19;;;;;;;9.45;3.55;;;9.50;99.90;;;;;;8317702;28;20068;-80
2023/09/23 04:47:22;;;;;;;4.50;3.13;;;9.40;99.90;;;;;;8315495;28;20493;-79
2023/09/23 04:51:25;;;;;;;5.40;3.05;;;9.40;99.90;;;;;;8320244;28;20025;-80
2023/09/23 04:55:28;;;;;;;7.70;2.90;;;9.40;99.90;;;;;;8332941;28;20103;-81
2023/09/23 04:59:29;;;;;;;6.00;2.95;;;9.30;99.90;;;;;;8321578;28;20501;-80
2023/09/23 05:03:30;;;;;;;4.15;3.00;;;9.30;99.90;;;;;;8310800;28;20045;-81
2023/09/23 05:07:30;;;;;;;4.90;2.92;;;9.30;99.90;;;;;;8312076;28;20014;-81
2023/09/23 05:11:31;;;;;;;5.55;3.40;;;9.20;99.90;;;;;;8302252;28;20037;-81
2023/09/23 05:15:31;;;;;;;6.28;3.55;;;9.10;99.90;;;;;;8333756;28;20390;-81
2023/09/23 05:19:33;;;;;;;4.82;3.25;;;9.20;99.90;;;;;;8327279;28;20614;-82
2023/09/23 05:23:33;;;;;;;5.35;3.50;;;9.20;99.90;;;;;;8314269;28;20085;-81
2023/09/23 05:27:34;;;;;;;5.32;3.10;;;9.30;99.90;;;;;;8320986;28;20077;-81
2023/09/23 05:31:36;;;;;;;4.75;3.30;;;9.30;99.90;;;;;;8320751;28;21153;-81
2023/09/23 05:35:38;;;;;;;5.28;3.67;;;9.40;99.90;;;;;;8319368;28;20103;-81
2023/09/23 05:39:44;;;;;;;4.15;3.15;;;9.40;99.90;;;;;;8328401;28;20109;-81
2023/09/23 05:43:45;;;;;;;5.85;3.28;;;9.50;99.90;;;;;;8319776;28;20021;-81
2023/09/23 05:47:45;;;;;;;4.32;3.25;;;9.60;99.90;;;;;;8311484;28;20477;-81
2023/09/23 05:51:47;;;;;;;6.32;3.17;;;9.80;99.90;;;;;;8299347;28;20029;-81
2023/09/23 05:55:48;;;;;;;5.43;2.92;;;9.90;99.90;;;;;;8309743;28;20030;-81
2023/09/23 05:59:49;;;;;;;5.00;2.92;;;10.10;99.90;;;;;;8319606;28;20033;-80
2023/09/23 06:03:50;;;;;;;6.63;3.10;;;10.30;99.90;;;;;;8313189;28;20037;-80
2023/09/23 06:07:52;;;;;;;4.80;3.10;;;10.50;99.90;;;;;;8306201;28;20026;-80
2023/09/23 06:11:54;;;;;;;3.40;2.58;;;10.70;99.90;;;;;;8330250;28;20474;-81
2023/09/23 06:16:01;;;;;;;5.07;2.83;;;10.80;99.90;;;;;;8316791;28;20021;-78
2023/09/23 06:20:03;;;;;;;3.20;2.40;;;10.80;99.90;;;;;;8298401;28;20021;-80
2023/09/23 06:24:03;;;;;;;3.78;2.70;;;11.20;99.90;;;;;;8320925;28;20689;-81
2023/09/23 06:28:04;;;;;;;3.40;2.20;;;11.50;99.90;;;;;;8330668;28;20021;-80
2023/09/23 06:32:05;;;;;;;2.83;2.25;;;11.60;99.90;;;;;;8314165;28;20048;-81
2023/09/23 06:36:06;;;;;;;4.30;2.03;;;11.60;99.90;;;;;;8330207;28;20033;-80
2023/09/23 06:40:07;;;;;;;3.47;1.80;;;11.70;99.90;;;;;;8318458;28;20052;-80
2023/09/23 06:44:07;;;;;;;2.35;1.58;;;11.90;99.90;;;;;;8316741;28;20021;-81
2023/09/23 06:48:08;;;;;;;3.25;1.90;;;12.00;99.90;;;;;;8311956;28;20021;-81
2023/09/23 06:52:12;;;;;;;4.30;1.42;;;12.20;99.90;;;;;;8315441;28;20033;-81
2023/09/23 06:56:12;;;;;;;3.22;1.50;;;12.30;99.90;;;;;;8306920;28;20486;-81
2023/09/23 07:00:13;;;;;;;1.83;1.20;;;12.50;99.90;;;;;;8331962;28;20029;-81
2023/09/23 07:04:14;;;;;;;1.70;1.10;;;12.60;99.90;;;;;;8312878;28;20029;-81
2023/09/23 07:08:15;;;;;;;3.20;1.10;;;12.80;99.90;;;;;;8312652;28;20067;-81
2023/09/23 07:12:15;;;;;;;1.80;1.20;;;12.90;99.90;;;;;;8316867;28;20103;-81
2023/09/23 07:16:16;;;;;;;1.90;1.30;;;12.90;99.90;;;;;;8320124;28;20032;-81
2023/09/23 07:20:19;;;;;;;2.10;1.35;;;13.20;99.90;;;;;;8321322;28;20047;-81
2023/09/23 07:24:19;;;;;;;1.80;1.05;;;13.30;99.90;;;;;;8330681;28;20030;-82
2023/09/23 07:28:20;;;;;;;1.48;1.15;;;13.40;99.90;;;;;;8338406;28;20084;-82
2023/09/23 07:32:20;;;;;;;3.45;1.20;;;13.70;99.90;;;;;;8314667;28;20564;-81
2023/09/23 07:36:21;;;;;;;1.63;1.00;;;14.10;99.90;;;;;;8332785;28;20493;-80
2023/09/23 07:40:22;;;;;;;1.63;1.10;;;14.40;99.90;;;;;;8336872;28;20056;-81
2023/09/23 07:44:22;;;;;;;1.58;0.90;;;14.20;99.90;;;;;;8335969;28;20025;-81
2023/09/23 07:48:23;;;;;;;2.50;0.90;;;14.60;99.90;;;;;;8313619;28;20025;-81
2023/09/23 07:52:23;;;;;;;1.52;0.80;;;14.70;99.90;;;;;;8318794;28;20633;-80
2023/09/23 07:56:24;;;;;;;1.80;0.88;;;15.30;99.90;;;;;;8334960;28;20071;-81
2023/09/23 08:00:24;;;;;;;1.55;0.80;;;15.10;99.90;;;;;;8319317;28;20587;-81
2023/09/23 08:04:25;;;;;;;1.40;0.80;;;15.20;99.90;;;;;;8329167;28;20009;-80
2023/09/23 08:08:26;;;;;;;1.40;0.82;;;15.20;99.90;;;;;;8329474;28;20097;-80
2023/09/23 08:12:27;;;;;;;1.75;0.77;;;15.20;99.90;;;;;;8336812;28;20025;-81
2023/09/23 08:16:27;;;;;;;1.23;0.60;;;15.40;99.90;;;;;;8335840;28;20018;-81
2023/09/23 08:20:29;;;;;;;1.77;0.80;;;15.50;99.90;;;;;;8322690;28;20021;-81
2023/09/23 08:24:30;;;;;;;1.25;0.63;;;16.10;99.90;;;;;;8324800;28;20021;-81
2023/09/23 08:28:30;;;;;;;2.42;1.00;;;16.20;99.90;;;;;;8319241;28;20052;-80
2023/09/23 08:32:31;;;;;;;1.42;0.82;;;16.60;99.90;;;;;;8315381;28;20025;-81
2023/09/23 08:36:32;;;;;;;1.88;0.80;;;16.60;99.90;;;;;;8314985;28;20026;-82
2023/09/23 08:40:35;;;;;;;1.67;1.00;;;16.70;99.90;;;;;;8328180;28;20477;-81
2023/09/23 08:44:36;;;;;;;1.30;0.95;;;16.60;99.90;;;;;;8334534;28;20022;-81
2023/09/23 08:48:38;;;;;;;1.92;1.00;;;16.40;99.90;;;;;;8322905;28;20112;-80
2023/09/23 08:52:38;;;;;;;3.05;0.80;;;16.50;99.90;;;;;;8321642;28;20140;-82
2023/09/23 08:56:39;;;;;;;1.30;0.60;;;16.30;99.90;;;;;;8322738;28;20513;-81
2023/09/23 09:00:45;;;;;;;1.30;0.77;;;16.20;99.90;;;;;;8306959;28;20065;-80
2023/09/23 09:04:46;;;;;;;1.33;0.60;;;15.80;99.90;;;;;;8310705;28;20032;-81
2023/09/23 09:08:46;;;;;;;2.20;0.80;;;15.90;99.90;;;;;;8312559;28;20028;-81
2023/09/23 09:12:48;;;;;;;1.45;0.88;;;16.30;99.90;;;;;;8317699;28;20148;-79
2023/09/23 09:16:49;;;;;;;0.85;0.55;;;16.50;99.90;;;;;;8334735;28;20255;-80
2023/09/23 09:20:49;;;;;;;2.05;0.80;;;16.50;99.90;;;;;;8331839;28;20520;-81
2023/09/23 09:24:50;;;;;;;15.38;2.53;;;16.60;99.90;;;;;;8316828;28;20375;-81
2023/09/23 09:28:53;;;;;;;0.95;0.70;;;16.90;99.90;;;;;;8333203;28;20021;-80
2023/09/23 09:32:59;;;;;;;2.33;1.20;;;17.40;99.90;;;;;;8334545;28;20404;-82
2023/09/23 09:37:03;;;;;;;1.05;0.80;;;17.70;99.90;;;;;;8325919;28;20018;-81
2023/09/23 09:41:05;;;;;;;1.90;0.85;;;17.50;99.90;;;;;;8330549;28;20075;-81
2023/09/23 09:45:10;;;;;;;4.32;1.13;;;17.40;99.90;;;;;;8311721;28;20017;-81
2023/09/23 09:49:11;;;;;;;2.45;0.70;;;17.80;99.90;;;;;;8328719;28;20093;-80
2023/09/23 09:53:13;;;;;;;1.10;0.60;;;18.40;99.90;;;;;;8316346;28;20345;-81
2023/09/23 09:57:25;;;;;;;3.15;0.90;;;18.60;99.90;;;;;;8409342;27;1253636;-80
2023/09/23 10:01:25;;;;;;;0.98;0.60;;;18.30;99.90;;;;;;8445892;28;20020;-81
2023/09/23 10:05:46;;;;;;;1.05;0.60;;;17.60;99.90;;;;;;8422753;28;20028;-83
2023/09/23 10:09:53;;;;;;;3.50;0.63;;;17.60;99.90;;;;;;8441880;28;20017;-83
2023/09/23 10:13:54;;;;;;;0.82;0.60;;;18.10;99.90;;;;;;8437895;28;20083;-82
2023/09/23 10:18:02;;;;;;;1.95;0.60;;;18.20;99.90;;;;;;8438274;28;20031;-83
2023/09/23 10:22:13;;;;;;;1.10;0.65;;;18.20;99.90;;;;;;8440369;28;20051;-83
2023/09/23 10:26:23;;;;;;;1.35;0.50;;;18.20;99.90;;;;;;8451623;28;20024;-83
2023/09/23 10:30:23;;;;;;;2.13;0.80;;;18.40;99.90;;;;;;8434000;28;20103;-83
2023/09/23 10:34:24;;;;;;;1.27;0.52;;;18.10;99.90;;;;;;8433906;28;20043;-83
2023/09/23 10:38:31;;;;;;;2.47;0.68;;;17.90;99.90;;;;;;8447800;28;20112;-82
2023/09/23 10:42:34;;;;;;;0.70;0.60;;;18.10;99.90;;;;;;8431530;28;20016;-83
2023/09/23 10:46:38;;;;;;;2.00;0.77;;;17.90;99.90;;;;;;8441363;28;20515;-82
2023/09/23 10:50:40;;;;;;;1.38;0.80;;;17.50;99.90;;;;;;8445655;28;20030;-82
2023/09/23 10:54:42;;;;;;;1.27;0.70;;;17.40;99.90;;;;;;8428898;28;20043;-83
2023/09/23 10:58:43;;;;;;;1.50;0.45;;;17.50;99.90;;;;;;8424672;28;20030;-83
2023/09/23 11:02:49;;;;;;;1.48;0.73;;;17.60;99.90;;;;;;8432993;28;20012;-83
2023/09/23 11:06:50;;;;;;;1.00;0.55;;;17.90;99.90;;;;;;8425828;28;20024;-83
2023/09/23 11:10:51;;;;;;;1.17;0.65;;;17.80;99.90;;;;;;8412217;28;20028;-81
2023/09/23 11:14:52;;;;;;;1.63;0.60;;;17.50;99.90;;;;;;8412175;28;20504;-82
2023/09/23 11:18:57;;;;;;;1.42;0.70;;;17.00;99.90;;;;;;8425488;28;20020;-82
2023/09/23 11:22:59;;;;;;;2.05;0.68;;;16.60;99.90;;;;;;8425445;28;20019;-83
2023/09/23 11:27:06;;;;;;;2.17;1.10;;;16.70;99.90;;;;;;8407967;28;20024;-82
2023/09/23 11:31:06;;;;;;;2.08;0.77;;;16.90;99.90;;;;;;8402316;28;20031;-82
2023/09/23 11:35:07;;;;;;;1.27;0.68;;;17.10;99.90;;;;;;8427222;28;20028;-83
2023/09/23 11:39:12;;;;;;;1.73;0.80;;;17.40;99.90;;;;;;8425149;28;20048;-83
2023/09/23 11:43:15;;;;;;;4.45;0.70;;;17.60;99.90;;;;;;8417113;28;20020;-82
2023/09/23 11:47:17;;;;;;;1.20;0.75;;;18.50;99.90;;;;;;8429702;28;20023;-81
2023/09/23 11:51:18;;;;;;;3.88;1.00;;;19.20;99.90;;;;;;8414494;28;20069;-83
2023/09/23 11:55:22;;;;;;;1.67;0.65;;;19.70;99.90;;;;;;8413414;28;20047;-82
2023/09/23 11:59:26;;;;;;;1.00;0.60;;;19.90;99.90;;;;;;8403209;28;20035;-83
2023/09/23 12:03:26;;;;;;;5.25;0.82;;;19.10;99.90;;;;;;8411265;28;20020;-82
2023/09/23 12:07:27;;;;;;;1.95;0.60;;;18.60;99.90;;;;;;8405165;28;20031;-82
2023/09/23 12:11:28;;;;;;;0.90;0.70;;;18.40;99.90;;;;;;8405293;28;20212;-83
2023/09/23 12:15:29;;;;;;;1.33;0.60;;;18.20;99.90;;;;;;8410266;28;20026;-82
2023/09/23 12:19:30;;;;;;;2.25;0.60;;;19.20;99.90;;;;;;8419977;28;20555;-83
2023/09/23 12:23:32;;;;;;;3.20;0.73;;;19.40;99.90;;;;;;8405184;28;20035;-82
2023/09/23 12:27:33;;;;;;;2.70;0.60;;;19.30;99.90;;;;;;8423165;28;20119;-82
2023/09/23 12:31:37;;;;;;;1.40;0.60;;;19.80;99.90;;;;;;8394200;28;20029;-82
2023/09/23 12:35:46;;;;;;;1.05;0.60;;;21.20;99.90;;;;;;8409450;28;20035;-82
2023/09/23 12:39:47;;;;;;;2.60;0.77;;;22.10;99.90;;;;;;8413348;28;20027;-83
2023/09/23 12:43:57;;;;;;;0.68;0.50;;;22.80;99.90;;;;;;8410642;28;20035;-83
2023/09/23 12:48:00;;;;;;;1.40;0.60;;;23.00;99.90;;;;;;8408232;28;20032;-82
2023/09/23 12:52:06;;;;;;;0.98;0.60;;;21.50;99.90;;;;;;8405580;28;20431;-82
2023/09/23 12:56:09;;;;;;;1.13;0.60;;;20.20;99.90;;;;;;8396121;28;20025;-82
2023/09/23 13:00:10;;;;;;;1.98;0.75;;;19.40;99.90;;;;;;8406258;28;20373;-80
2023/09/23 13:04:10;;;;;;;3.45;1.38;;;18.70;99.90;;;;;;8419353;28;20020;-83
2023/09/23 13:08:11;;;;;;;3.05;0.70;;;18.60;99.90;;;;;;8403697;28;20671;-82
2023/09/23 13:12:12;;;;;;;1.83;0.70;;;18.80;99.90;;;;;;8397244;28;20035;-83
2023/09/23 13:16:12;;;;;;;1.38;0.70;;;19.00;99.90;;;;;;8404177;28;20032;-84
2023/09/23 13:20:13;;;;;;;1.10;0.70;;;18.70;99.90;;;;;;8407117;28;20031;-82
2023/09/23 13:24:14;;;;;;;4.25;0.80;;;18.00;99.90;;;;;;8395827;28;20081;-82
2023/09/23 13:28:16;;;;;;;2.67;0.80;;;17.50;99.90;;;;;;8400988;28;20119;-82
2023/09/23 13:32:17;;;;;;;2.75;0.90;;;17.10;99.90;;;;;;8397771;28;20081;-83
2023/09/23 13:36:17;;;;;;;2.25;0.77;;;16.80;99.90;;;;;;8401505;28;20050;-82
2023/09/23 13:40:18;;;;;;;1.20;0.80;;;16.80;99.90;;;;;;8414560;28;20020;-82
2023/09/23 13:44:18;;;;;;;1.30;0.73;;;16.90;99.90;;;;;;8419822;28;20028;-81
2023/09/23 13:48:20;;;;;;;1.67;0.80;;;16.80;99.90;;;;;;8422568;28;20032;-81
2023/09/23 13:52:20;;;;;;;2.40;0.95;;;16.70;99.90;;;;;;8412987;28;20606;-82
2023/09/23 13:56:21;;;;;;;1.02;0.80;;;16.70;99.90;;;;;;8419890;28;20025;-82
2023/09/23 14:00:21;;;;;;;1.92;1.10;;;16.80;99.90;;;;;;8421317;28;20020;-80
2023/09/23 14:04:22;;;;;;;1.65;0.82;;;16.60;99.90;;;;;;8395714;28;20031;-82
2023/09/23 14:08:23;;;;;;;1.00;0.60;;;16.30;99.90;;;;;;8403420;28;20027;-82
2023/09/23 14:12:23;;;;;;;3.72;0.80;;;16.10;99.90;;;;;;8410385;28;20077;-82
2023/09/23 14:16:24;;;;;;;1.38;0.90;;;16.20;99.90;;;;;;8398121;28;20603;-83
2023/09/23 14:20:24;;;;;;;2.13;0.88;;;16.20;99.90;;;;;;8400937;28;20020;-82
2023/09/23 14:24:25;;;;;;;3.28;1.02;;;16.20;99.90;;;;;;8419833;28;20024;-83
2023/09/23 14:28:25;;;;;;;1.77;1.10;;;16.30;99.90;;;;;;8401919;28;20024;-82
2023/09/23 14:32:26;;;;;;;2.00;1.08;;;16.40;99.90;;;;;;8408747;28;20031;-82
2023/09/23 14:36:26;;;;;;;1.75;1.00;;;16.70;99.90;;;;;;8404280;28;20052;-81
2023/09/23 14:40:27;;;;;;;1.92;0.80;;;17.10;99.90;;;;;;8410802;28;20044;-81
2023/09/23 14:44:28;;;;;;;1.33;0.90;;;17.30;99.90;;;;;;8427197;28;20032;-82
2023/09/23 14:48:29;;;;;;;1.80;0.73;;;17.80;99.90;;;;;;8408935;28;20032;-81
2023/09/23 14:52:32;;;;;;;3.90;1.13;;;17.80;99.90;;;;;;8412666;28;21800;-82
2023/09/23 14:56:33;;;;;;;2.83;1.10;;;17.40;99.90;;;;;;8406909;28;20035;-82
2023/09/23 15:00:34;;;;;;;1.02;0.80;;;16.80;99.90;;;;;;8401037;28;20687;-82
2023/09/23 15:04:34;;;;;;;1.92;1.17;;;16.40;99.90;;;;;;8422374;28;20028;-82
2023/09/23 15:08:38;;;;;;;4.47;1.20;;;16.30;99.90;;;;;;8409258;28;20040;-81
2023/09/23 15:12:39;;;;;;;1.42;1.00;;;16.10;99.90;;;;;;8432481;28;20028;-82
2023/09/23 15:16:39;;;;;;;1.73;1.02;;;16.00;99.90;;;;;;8436168;28;20079;-82
2023/09/23 15:20:40;;;;;;;1.35;0.95;;;15.60;99.90;;;;;;8433262;28;20028;-82
2023/09/23 15:24:43;;;;;;;1.70;1.15;;;15.40;99.90;;;;;;8432629;28;20024;-81
2023/09/23 15:28:47;;;;;;;1.77;0.90;;;15.20;99.90;;;;;;8405711;28;20032;-82
2023/09/23 15:32:47;;;;;;;3.15;1.10;;;15.10;99.90;;;;;;8429056;28;20035;-81
2023/09/23 15:36:48;;;;;;;3.40;0.95;;;15.00;99.90;;;;;;8407359;28;20393;-82
2023/09/23 15:40:49;;;;;;;2.20;1.00;;;15.00;99.90;;;;;;8407197;28;20030;-84
2023/09/23 15:44:49;;;;;;;1.90;0.93;;;14.90;99.90;;;;;;8411279;28;20027;-82
2023/09/23 15:48:50;;;;;;;1.13;0.80;;;14.90;99.90;;;;;;8407035;28;20046;-82
2023/09/23 15:52:52;;;;;;;2.53;0.90;;;15.00;99.90;;;;;;8410731;28;20052;-83
2023/09/23 15:56:52;;;;;;;1.20;0.80;;;14.90;99.90;;;;;;8408304;28;20092;-81
2023/09/23 16:00:53;;;;;;;1.67;1.00;;;14.90;99.90;;;;;;8408980;28;20019;-83
2023/09/23 16:04:54;;;;;;;2.15;0.90;;;15.00;99.90;;;;;;8404681;28;20043;-83
2023/09/23 16:08:55;;;;;;;1.67;0.80;;;15.00;99.90;;;;;;8407854;28;20059;-82
2023/09/23 16:12:55;;;;;;;0.88;0.77;;;15.00;99.90;;;;;;8408480;28;20032;-82
2023/09/23 16:17:02;;;;;;;2.33;1.25;;;14.90;99.90;;;;;;8408060;28;20024;-81
2023/09/23 16:21:02;;;;;;;1.00;0.90;;;14.80;99.90;;;;;;8402612;28;20031;-80
2023/09/23 16:25:03;;;;;;;0.98;0.70;;;14.70;99.90;;;;;;8395254;28;20547;-81
2023/09/23 16:29:04;;;;;;;2.17;0.73;;;14.60;99.90;;;;;;8427557;28;20027;-82
2023/09/23 16:33:05;;;;;;;1.65;0.80;;;14.40;99.90;;;;;;8419334;28;20486;-82
2023/09/23 16:37:05;;;;;;;1.75;0.80;;;14.10;99.90;;;;;;8417456;28;20410;-81
2023/09/23 16:41:07;;;;;;;1.67;0.90;;;13.80;99.90;;;;;;8398588;28;20021;-81
2023/09/23 16:45:07;;;;;;;3.35;2.40;;;13.60;99.90;;;;;;8395849;28;20027;-80
2023/09/23 16:49:08;;;;;;;2.58;1.05;;;13.50;99.90;;;;;;8417463;28;20028;-82
2023/09/23 16:53:10;;;;;;;2.05;1.10;;;13.20;99.90;;;;;;8413182;28;20029;-82
2023/09/23 16:57:11;;;;;;;1.50;1.10;;;13.20;99.90;;;;;;8400098;28;20107;-82
2023/09/23 17:01:41;;;;;;;1.58;1.30;;;13.30;99.90;;;;;;8421940;28;20016;-82
2023/09/23 17:06:35;;;;;;;1.60;1.00;;;13.30;99.90;;;;;;8399767;28;20036;-81
2023/09/23 17:10:36;;;;;;;2.53;1.10;;;13.20;99.90;;;;;;8242070;28;20474;-82
2023/09/23 17:14:39;;;;;;;1.60;1.20;;;12.80;99.90;;;;;;8342194;28;20119;-81
2023/09/23 17:18:39;;;;;;;3.30;1.25;;;13.30;99.90;;;;;;8392441;28;20024;-82
2023/09/23 17:22:40;;;;;;;11.73;10.63;;;13.00;99.90;;;;;;8384051;28;20028;-82
2023/09/23 17:26:41;;;;;;;3.78;3.30;;;12.80;99.90;;;;;;8398096;28;20376;-81
2023/09/23 17:30:41;;;;;;;2.22;1.20;;;12.60;99.90;;;;;;8400290;28;20021;-80
2023/09/23 17:34:42;;;;;;;2.17;1.35;;;12.70;99.90;;;;;;8395763;28;20130;-80
2023/09/23 17:38:42;;;;;;;2.72;1.00;;;12.40;99.90;;;;;;8402293;28;20023;-81
2023/09/23 17:42:43;;;;;;;2.85;1.23;;;12.30;99.90;;;;;;8406572;28;20032;-79
2023/09/23 17:46:45;;;;;;;1.65;1.10;;;12.30;99.90;;;;;;8411225;28;20056;-78
2023/09/23 17:50:45;;;;;;;1.83;0.90;;;12.20;99.90;;;;;;8418173;28;20031;-79
2023/09/23 17:54:48;;;;;;;1.38;0.88;;;12.20;99.90;;;;;;8396015;28;20385;-78
2023/09/23 17:58:49;;;;;;;2.83;0.90;;;12.10;99.90;;;;;;8412446;28;20524;-80
2023/09/23 18:03:06;;;;;;;2.70;1.27;;;12.00;99.90;;;;;;8400592;28;20024;-79
2023/09/23 18:07:06;;;;;;;2.65;1.80;;;11.90;99.90;;;;;;8414931;28;20031;-80
2023/09/23 18:11:10;;;;;;;2.95;1.70;;;11.80;99.90;;;;;;8402411;28;20511;-80
2023/09/23 18:15:12;;;;;;;2.50;1.50;;;11.80;99.90;;;;;;8392796;28;20031;-78
2023/09/23 18:19:36;;;;;;;1.50;1.30;;;11.80;99.90;;;;;;8421449;28;20204;-80
2023/09/23 18:23:36;;;;;;;2.58;1.48;;;11.70;99.90;;;;;;8408485;28;20047;-79
2023/09/23 18:27:37;;;;;;;1.75;1.38;;;11.60;99.90;;;;;;8393989;28;20027;-79
2023/09/23 18:31:40;;;;;;;12.57;8.75;;;11.60;99.90;;;;;;8409124;28;20032;-79
2023/09/23 18:35:41;;;;;;;2.53;1.60;;;11.60;99.90;;;;;;8433186;28;20031;-79
2023/09/23 18:39:42;;;;;;;1.90;1.70;;;11.60;99.90;;;;;;8418482;28;20032;-79
2023/09/23 18:43:43;;;;;;;2.22;1.50;;;11.60;99.90;;;;;;8402431;28;20051;-79
2023/09/23 18:47:43;;;;;;;2.15;1.50;;;11.60;99.90;;;;;;8429157;28;20499;-80
2023/09/23 18:51:45;;;;;;;1.98;1.42;;;11.60;99.90;;;;;;8407298;28;20027;-79
2023/09/23 18:55:46;;;;;;;2.10;1.30;;;11.90;99.90;;;;;;8413160;28;20028;-79
2023/09/23 18:59:46;;;;;;;3.05;1.40;;;11.80;99.90;;;;;;8419991;28;20025;-80
2023/09/23 19:03:47;;;;;;;4.95;1.30;;;11.50;99.90;;;;;;8405268;28;20056;-80
2023/09/23 19:07:47;;;;;;;2.55;1.70;;;11.30;99.90;;;;;;8397352;28;20040;-79
2023/09/23 19:11:48;;;;;;;1.70;1.23;;;11.10;99.90;;;;;;8417449;28;20037;-79
2023/09/23 19:15:50;;;;;;;1.63;1.33;;;11.00;99.90;;;;;;8411413;28;20028;-79
2023/09/23 19:19:51;;;;;;;3.75;1.50;;;10.90;99.90;;;;;;8408949;28;20050;-79
2023/09/23 19:23:51;;;;;;;2.42;1.45;;;10.90;99.90;;;;;;8398249;28;20025;-79
2023/09/23 19:27:52;;;;;;;3.72;1.67;;;10.70;99.90;;;;;;8394034;28;20028;-79
2023/09/23 19:31:55;;;;;;;2.30;1.83;;;10.60;99.90;;;;;;8400577;28;20214;-79
2023/09/23 19:35:55;;;;;;;5.43;3.72;;;10.50;99.90;;;;;;8387150;28;20031;-79
2023/09/23 19:39:56;;;;;;;13.98;5.82;;;10.40;99.90;;;;;;8418345;28;20021;-79
2023/09/23 19:43:57;;;;;;;8.05;4.93;;;10.30;99.90;;;;;;8417401;28;20115;-78
2023/09/23 19:47:58;;;;;;;5.85;4.35;;;10.30;99.90;;;;;;8401225;28;20034;-79
2023/09/23 19:51:58;;;;;;;4.93;3.75;;;10.30;99.90;;;;;;8401736;28;20028;-79
2023/09/23 19:55:59;;;;;;;5.20;3.83;;;10.30;99.90;;;;;;8399063;28;20567;-79
2023/09/23 20:00:00;;;;;;;8.52;4.25;;;10.20;99.90;;;;;;8405967;28;20070;-79
2023/09/23 20:04:00;;;;;;;7.25;4.70;;;10.10;99.90;;;;;;8404251;28;20024;-79
2023/09/23 20:08:01;;;;;;;9.20;4.78;;;10.10;99.90;;;;;;8388121;28;20029;-79
2023/09/23 20:12:03;;;;;;;8.38;5.22;;;10.20;99.90;;;;;;8422577;28;20438;-79
2023/09/23 20:16:04;;;;;;;7.00;4.57;;;10.30;99.90;;;;;;8403859;28;20059;-79
2023/09/23 20:20:07;;;;;;;8.85;6.32;;;10.50;99.90;;;;;;8393025;28;20016;-79
2023/09/23 20:24:08;;;;;;;8.38;4.07;;;10.90;99.90;;;;;;8396354;28;20088;-79
2023/09/23 20:28:09;;;;;;;4.68;4.00;;;11.10;99.90;;;;;;8400042;28;20024;-79
2023/09/23 20:32:10;;;;;;;4.15;3.47;;;10.70;99.90;;;;;;8405577;28;20046;-79
2023/09/23 20:36:11;;;;;;;6.50;2.95;;;10.90;99.90;;;;;;8403800;28;20058;-79
2023/09/23 20:40:12;;;;;;;4.85;2.78;;;10.80;99.90;;;;;;8398133;28;20019;-78
2023/09/23 20:44:13;;;;;;;4.40;2.72;;;10.60;99.90;;;;;;8398804;28;20093;-79
2023/09/23 20:48:14;;;;;;;3.40;2.70;;;10.50;99.90;;;;;;8423119;28;20020;-79
2023/09/23 20:52:14;;;;;;;4.63;2.53;;;10.30;99.90;;;;;;8422422;28;20012;-79
2023/09/23 20:56:15;;;;;;;3.95;2.08;;;10.50;99.90;;;;;;8396877;28;20048;-79
2023/09/23 21:00:18;;;;;;;2.80;2.08;;;11.00;99.90;;;;;;8417108;28;20488;-79